sensor_id;sensor_type;location;lat;lon;timestamp;temperature;humidity
6964;DHT22;3522;50.856;7.278;2024-03-29T00:01:05;8.40;99.90
6964;DHT22;3522;50.856;7.278;2024-03-29T00:03:31;8.40;99.90
6964;DHT22;3522;50.856;7.278;2024-03-29T00:05:57;8.30;99.90
6964;DHT22;3522;50.856;7.278;2024-03-29T00:08:22;8.20;99.90
6964;DHT22;3522;50.856;7.278;2024-03-29T00:10:48;8.20;99.90
6964;DHT22;3522;50.856;7.278;2024-03-29T00:13:15;8.10;99.90
6964;DHT22;3522;50.856;7.278;2024-03-29T00:15:41;8.10;99.90
6964;DHT22;3522;50.856;7.278;2024-03-29T00:18:06;8.10;99.90
6964;DHT22;3522;50.856;7.278;2024-03-29T00:20:32;8.10;99.90
6964;DHT22;3522;50.856;7.278;2024-03-29T00:22:58;8.00;99.90
6964;DHT22;3522;50.856;7.278;2024-03-29T00:25:23;8.00;99.90
6964;DHT22;3522;50.856;7.278;2024-03-29T00:27:49;7.90;99.90
6964;DHT22;3522;50.856;7.278;2024-03-29T00:30:16;7.90;99.90
6964;DHT22;3522;50.856;7.278;2024-03-29T00:32:42;7.90;99.90
6964;DHT22;3522;50.856;7.278;2024-03-29T00:35:08;7.90;99.90
6964;DHT22;3522;50.856;7.278;2024-03-29T00:37:33;7.90;99.90
6964;DHT22;3522;50.856;7.278;2024-03-29T00:39:59;7.80;99.90
6964;DHT22;3522;50.856;7.278;2024-03-29T00:42:25;7.80;99.90
6964;DHT22;3522;50.856;7.278;2024-03-29T00:44:51;7.90;99.90
6964;DHT22;3522;50.856;7.278;2024-03-29T00:47:18;7.90;99.90
6964;DHT22;3522;50.856;7.278;2024-03-29T00:49:44;7.90;99.90
6964;DHT22;3522;50.856;7.278;2024-03-29T00:52:09;7.90;99.90
6964;DHT22;3522;50.856;7.278;2024-03-29T00:54:35;7.90;99.90
6964;DHT22;3522;50.856;7.278;2024-03-29T00:57:01;8.00;99.90
6964;DHT22;3522;50.856;7.278;2024-03-29T00:59:26;8.10;99.90
6964;DHT22;3522;50.856;7.278;2024-03-29T01:01:52;8.00;99.90
6964;DHT22;3522;50.856;7.278;2024-03-29T01:04:19;8.10;99.90
6964;DHT22;3522;50.856;7.278;2024-03-29T01:06:45;8.10;99.90
6964;DHT22;3522;50.856;7.278;2024-03-29T01:09:10;8.20;99.90
6964;DHT22;3522;50.856;7.278;2024-03-29T01:11:36;8.20;99.90
6964;DHT22;3522;50.856;7.278;2024-03-29T01:14:02;8.20;99.90
6964;DHT22;3522;50.856;7.278;2024-03-29T01:16:28;8.20;99.90
6964;DHT22;3522;50.856;7.278;2024-03-29T01:18:53;8.20;99.90
6964;DHT22;3522;50.856;7.278;2024-03-29T01:21:20;8.20;99.90
6964;DHT22;3522;50.856;7.278;2024-03-29T01:23:46;8.20;99.90
6964;DHT22;3522;50.856;7.278;2024-03-29T01:26:12;8.10;99.90
6964;DHT22;3522;50.856;7.278;2024-03-29T01:28:37;8.20;99.90
6964;DHT22;3522;50.856;7.278;2024-03-29T01:31:03;8.20;99.90
6964;DHT22;3522;50.856;7.278;2024-03-29T01:33:30;8.10;99.90
6964;DHT22;3522;50.856;7.278;2024-03-29T01:35:56;8.10;99.90
6964;DHT22;3522;50.856;7.278;2024-03-29T01:38:23;8.20;99.90
6964;DHT22;3522;50.856;7.278;2024-03-29T01:40:48;8.10;99.90
6964;DHT22;3522;50.856;7.278;2024-03-29T01:43:14;8.20;99.90
6964;DHT22;3522;50.856;7.278;2024-03-29T01:45:41;8.20;99.90
6964;DHT22;3522;50.856;7.278;2024-03-29T01:48:08;8.20;99.90
6964;DHT22;3522;50.856;7.278;2024-03-29T01:50:35;8.20;99.90
6964;DHT22;3522;50.856;7.278;2024-03-29T01:53:05;8.30;99.90
6964;DHT22;3522;50.856;7.278;2024-03-29T01:55:33;8.30;99.90
6964;DHT22;3522;50.856;7.278;2024-03-29T01:58:00;8.30;99.90
6964;DHT22;3522;50.856;7.278;2024-03-29T02:00:27;8.40;99.90
6964;DHT22;3522;50.856;7.278;2024-03-29T02:05:50;8.40;99.90
6964;DHT22;3522;50.856;7.278;2024-03-29T02:08:16;8.40;99.90
6964;DHT22;3522;50.856;7.278;2024-03-29T02:10:44;8.40;99.90
6964;DHT22;3522;50.856;7.278;2024-03-29T02:13:12;8.40;99.90
6964;DHT22;3522;50.856;7.278;2024-03-29T02:15:38;8.30;99.90
6964;DHT22;3522;50.856;7.278;2024-03-29T02:18:04;8.30;99.90
6964;DHT22;3522;50.856;7.278;2024-03-29T02:20:31;8.30;99.90
6964;DHT22;3522;50.856;7.278;2024-03-29T02:23:00;8.40;99.90
6964;DHT22;3522;50.856;7.278;2024-03-29T02:25:29;8.20;99.90
6964;DHT22;3522;50.856;7.278;2024-03-29T02:27:56;8.30;99.90
6964;DHT22;3522;50.856;7.278;2024-03-29T02:30:23;8.20;99.90
6964;DHT22;3522;50.856;7.278;2024-03-29T02:32:49;8.20;99.90
6964;DHT22;3522;50.856;7.278;2024-03-29T02:35:16;8.20;99.90
6964;DHT22;3522;50.856;7.278;2024-03-29T02:37:43;8.20;99.90
6964;DHT22;3522;50.856;7.278;2024-03-29T02:40:10;8.20;99.90
6964;DHT22;3522;50.856;7.278;2024-03-29T02:42:38;8.20;99.90
6964;DHT22;3522;50.856;7.278;2024-03-29T02:45:05;8.20;99.90
6964;DHT22;3522;50.856;7.278;2024-03-29T02:47:32;8.20;99.90
6964;DHT22;3522;50.856;7.278;2024-03-29T02:49:57;8.20;99.90
6964;DHT22;3522;50.856;7.278;2024-03-29T02:52:24;8.20;99.90
6964;DHT22;3522;50.856;7.278;2024-03-29T02:54:50;8.20;99.90
6964;DHT22;3522;50.856;7.278;2024-03-29T02:57:16;8.20;99.90
6964;DHT22;3522;50.856;7.278;2024-03-29T02:59:43;8.20;99.90
6964;DHT22;3522;50.856;7.278;2024-03-29T03:02:10;8.20;99.90
6964;DHT22;3522;50.856;7.278;2024-03-29T03:04:35;8.20;99.90
6964;DHT22;3522;50.856;7.278;2024-03-29T03:07:02;8.10;99.90
6964;DHT22;3522;50.856;7.278;2024-03-29T03:09:42;8.10;99.90
6964;DHT22;3522;50.856;7.278;2024-03-29T03:12:28;8.10;99.90
6964;DHT22;3522;50.856;7.278;2024-03-29T03:14:56;8.10;99.90
6964;DHT22;3522;50.856;7.278;2024-03-29T03:17:24;8.10;99.90
6964;DHT22;3522;50.856;7.278;2024-03-29T03:19:50;8.10;99.90
6964;DHT22;3522;50.856;7.278;2024-03-29T03:22:17;8.10;99.90
6964;DHT22;3522;50.856;7.278;2024-03-29T03:24:43;8.20;99.90
6964;DHT22;3522;50.856;7.278;2024-03-29T03:27:11;8.20;99.90
6964;DHT22;3522;50.856;7.278;2024-03-29T03:29:36;8.20;99.90
6964;DHT22;3522;50.856;7.278;2024-03-29T03:32:05;8.20;99.90
6964;DHT22;3522;50.856;7.278;2024-03-29T03:34:31;8.20;99.90
6964;DHT22;3522;50.856;7.278;2024-03-29T03:36:58;8.20;99.90
6964;DHT22;3522;50.856;7.278;2024-03-29T03:39:23;8.20;99.90
6964;DHT22;3522;50.856;7.278;2024-03-29T03:41:50;8.30;99.90
6964;DHT22;3522;50.856;7.278;2024-03-29T03:44:16;8.30;99.90
6964;DHT22;3522;50.856;7.278;2024-03-29T03:46:42;8.30;99.90
6964;DHT22;3522;50.856;7.278;2024-03-29T03:49:12;8.30;99.90
6964;DHT22;3522;50.856;7.278;2024-03-29T03:51:39;8.30;99.90
6964;DHT22;3522;50.856;7.278;2024-03-29T03:54:07;8.30;99.90
6964;DHT22;3522;50.856;7.278;2024-03-29T03:56:34;8.30;99.90
6964;DHT22;3522;50.856;7.278;2024-03-29T03:58:59;8.40;99.90
6964;DHT22;3522;50.856;7.278;2024-03-29T04:01:26;8.40;99.90
6964;DHT22;3522;50.856;7.278;2024-03-29T04:03:52;8.40;99.90
6964;DHT22;3522;50.856;7.278;2024-03-29T04:06:19;8.40;99.90
6964;DHT22;3522;50.856;7.278;2024-03-29T04:08:49;8.40;99.90
6964;DHT22;3522;50.856;7.278;2024-03-29T04:11:15;8.40;99.90
6964;DHT22;3522;50.856;7.278;2024-03-29T04:13:42;8.40;99.90
6964;DHT22;3522;50.856;7.278;2024-03-29T04:16:08;8.40;99.90
6964;DHT22;3522;50.856;7.278;2024-03-29T04:18:34;8.40;99.90
6964;DHT22;3522;50.856;7.278;2024-03-29T04:21:01;8.40;99.90
6964;DHT22;3522;50.856;7.278;2024-03-29T04:23:28;8.40;99.90
6964;DHT22;3522;50.856;7.278;2024-03-29T04:25:55;8.40;99.90
6964;DHT22;3522;50.856;7.278;2024-03-29T04:28:21;8.40;99.90
6964;DHT22;3522;50.856;7.278;2024-03-29T04:30:51;8.40;99.90
6964;DHT22;3522;50.856;7.278;2024-03-29T04:33:17;8.40;99.90
6964;DHT22;3522;50.856;7.278;2024-03-29T04:35:51;8.40;99.90
6964;DHT22;3522;50.856;7.278;2024-03-29T04:38:17;8.30;99.90
6964;DHT22;3522;50.856;7.278;2024-03-29T04:40:45;8.30;99.90
6964;DHT22;3522;50.856;7.278;2024-03-29T04:43:11;8.30;99.90
6964;DHT22;3522;50.856;7.278;2024-03-29T04:45:38;8.30;99.90
6964;DHT22;3522;50.856;7.278;2024-03-29T04:48:05;8.30;99.90
6964;DHT22;3522;50.856;7.278;2024-03-29T04:50:32;8.30;99.90
6964;DHT22;3522;50.856;7.278;2024-03-29T04:52:58;8.30;99.90
6964;DHT22;3522;50.856;7.278;2024-03-29T04:55:25;8.40;99.90
6964;DHT22;3522;50.856;7.278;2024-03-29T04:57:53;8.40;99.90
6964;DHT22;3522;50.856;7.278;2024-03-29T05:00:19;8.40;99.90
6964;DHT22;3522;50.856;7.278;2024-03-29T05:02:46;8.40;99.90
6964;DHT22;3522;50.856;7.278;2024-03-29T05:05:13;8.50;99.90
6964;DHT22;3522;50.856;7.278;2024-03-29T05:07:39;8.50;99.90
6964;DHT22;3522;50.856;7.278;2024-03-29T05:10:07;8.50;99.90
6964;DHT22;3522;50.856;7.278;2024-03-29T05:12:35;8.50;99.90
6964;DHT22;3522;50.856;7.278;2024-03-29T05:15:03;8.50;99.90
6964;DHT22;3522;50.856;7.278;2024-03-29T05:17:29;8.50;99.90
6964;DHT22;3522;50.856;7.278;2024-03-29T05:19:56;8.50;99.90
6964;DHT22;3522;50.856;7.278;2024-03-29T05:22:22;8.50;99.90
6964;DHT22;3522;50.856;7.278;2024-03-29T05:24:50;8.60;99.90
6964;DHT22;3522;50.856;7.278;2024-03-29T05:27:18;8.50;99.90
6964;DHT22;3522;50.856;7.278;2024-03-29T05:29:45;8.50;99.90
6964;DHT22;3522;50.856;7.278;2024-03-29T05:32:13;8.50;99.90
6964;DHT22;3522;50.856;7.278;2024-03-29T05:34:40;8.60;99.90
6964;DHT22;3522;50.856;7.278;2024-03-29T05:37:06;8.80;99.90
6964;DHT22;3522;50.856;7.278;2024-03-29T05:39:33;8.70;99.90
6964;DHT22;3522;50.856;7.278;2024-03-29T05:42:00;8.70;99.90
6964;DHT22;3522;50.856;7.278;2024-03-29T05:44:26;8.70;99.90
6964;DHT22;3522;50.856;7.278;2024-03-29T05:46:53;8.70;99.90
6964;DHT22;3522;50.856;7.278;2024-03-29T05:49:21;8.80;99.90
6964;DHT22;3522;50.856;7.278;2024-03-29T05:51:47;8.70;99.90
6964;DHT22;3522;50.856;7.278;2024-03-29T05:54:16;8.70;99.90
6964;DHT22;3522;50.856;7.278;2024-03-29T05:56:42;8.70;99.90
6964;DHT22;3522;50.856;7.278;2024-03-29T05:59:09;8.70;99.90
6964;DHT22;3522;50.856;7.278;2024-03-29T06:01:37;8.70;99.90
6964;DHT22;3522;50.856;7.278;2024-03-29T06:04:04;8.70;99.90
6964;DHT22;3522;50.856;7.278;2024-03-29T06:06:40;8.70;99.90
6964;DHT22;3522;50.856;7.278;2024-03-29T06:09:06;8.70;99.90
6964;DHT22;3522;50.856;7.278;2024-03-29T06:11:33;8.60;99.90
6964;DHT22;3522;50.856;7.278;2024-03-29T06:14:00;8.70;99.90
6964;DHT22;3522;50.856;7.278;2024-03-29T06:16:44;8.70;99.90
6964;DHT22;3522;50.856;7.278;2024-03-29T06:19:28;8.60;99.90
6964;DHT22;3522;50.856;7.278;2024-03-29T06:21:56;8.60;99.90
6964;DHT22;3522;50.856;7.278;2024-03-29T06:24:22;8.60;99.90
6964;DHT22;3522;50.856;7.278;2024-03-29T06:26:49;8.60;99.90
6964;DHT22;3522;50.856;7.278;2024-03-29T06:29:18;8.60;99.90
6964;DHT22;3522;50.856;7.278;2024-03-29T06:31:44;8.60;99.90
6964;DHT22;3522;50.856;7.278;2024-03-29T06:34:11;8.60;99.90
6964;DHT22;3522;50.856;7.278;2024-03-29T06:36:38;8.70;99.90
6964;DHT22;3522;50.856;7.278;2024-03-29T06:39:06;8.70;99.90
6964;DHT22;3522;50.856;7.278;2024-03-29T06:41:33;8.70;99.90
6964;DHT22;3522;50.856;7.278;2024-03-29T06:44:00;8.80;99.90
6964;DHT22;3522;50.856;7.278;2024-03-29T06:46:27;8.80;99.90
6964;DHT22;3522;50.856;7.278;2024-03-29T06:48:53;8.80;99.90
6964;DHT22;3522;50.856;7.278;2024-03-29T06:51:20;8.90;99.90
6964;DHT22;3522;50.856;7.278;2024-03-29T06:53:46;8.90;99.90
6964;DHT22;3522;50.856;7.278;2024-03-29T06:56:14;8.90;99.90
6964;DHT22;3522;50.856;7.278;2024-03-29T06:58:41;9.00;99.90
6964;DHT22;3522;50.856;7.278;2024-03-29T07:01:08;9.00;99.90
6964;DHT22;3522;50.856;7.278;2024-03-29T07:03:34;9.10;99.90
6964;DHT22;3522;50.856;7.278;2024-03-29T07:06:02;9.20;99.90
6964;DHT22;3522;50.856;7.278;2024-03-29T07:08:29;9.30;99.90
6964;DHT22;3522;50.856;7.278;2024-03-29T07:10:58;9.30;99.90
6964;DHT22;3522;50.856;7.278;2024-03-29T07:13:28;9.40;99.90
6964;DHT22;3522;50.856;7.278;2024-03-29T07:15:54;9.40;99.90
6964;DHT22;3522;50.856;7.278;2024-03-29T07:18:21;9.50;99.90
6964;DHT22;3522;50.856;7.278;2024-03-29T07:20:48;9.60;99.90
6964;DHT22;3522;50.856;7.278;2024-03-29T07:23:15;9.60;99.90
6964;DHT22;3522;50.856;7.278;2024-03-29T07:25:43;9.70;99.90
6964;DHT22;3522;50.856;7.278;2024-03-29T07:28:10;9.80;99.90
6964;DHT22;3522;50.856;7.278;2024-03-29T07:30:41;10.00;99.90
6964;DHT22;3522;50.856;7.278;2024-03-29T07:33:09;9.90;99.90
6964;DHT22;3522;50.856;7.278;2024-03-29T07:35:36;9.90;99.90
6964;DHT22;3522;50.856;7.278;2024-03-29T07:38:03;10.00;99.90
6964;DHT22;3522;50.856;7.278;2024-03-29T07:40:30;10.00;99.90
6964;DHT22;3522;50.856;7.278;2024-03-29T07:42:56;10.10;99.90
6964;DHT22;3522;50.856;7.278;2024-03-29T07:45:25;10.10;99.90
6964;DHT22;3522;50.856;7.278;2024-03-29T07:47:53;10.10;99.90
6964;DHT22;3522;50.856;7.278;2024-03-29T07:50:19;10.10;99.90
6964;DHT22;3522;50.856;7.278;2024-03-29T07:52:46;10.10;99.90
6964;DHT22;3522;50.856;7.278;2024-03-29T07:55:13;10.10;99.90
6964;DHT22;3522;50.856;7.278;2024-03-29T07:57:39;10.20;99.90
6964;DHT22;3522;50.856;7.278;2024-03-29T08:00:06;10.20;99.90
6964;DHT22;3522;50.856;7.278;2024-03-29T08:02:33;10.10;99.90
6964;DHT22;3522;50.856;7.278;2024-03-29T08:05:01;10.10;99.90
6964;DHT22;3522;50.856;7.278;2024-03-29T08:07:28;10.10;99.90
6964;DHT22;3522;50.856;7.278;2024-03-29T08:09:57;10.10;99.90
6964;DHT22;3522;50.856;7.278;2024-03-29T08:12:24;10.10;99.90
6964;DHT22;3522;50.856;7.278;2024-03-29T08:14:51;10.10;99.90
6964;DHT22;3522;50.856;7.278;2024-03-29T08:17:19;10.10;99.90
6964;DHT22;3522;50.856;7.278;2024-03-29T08:19:53;10.10;99.90
6964;DHT22;3522;50.856;7.278;2024-03-29T08:22:21;10.20;99.90
6964;DHT22;3522;50.856;7.278;2024-03-29T08:24:48;10.20;99.90
6964;DHT22;3522;50.856;7.278;2024-03-29T08:27:14;10.20;99.90
6964;DHT22;3522;50.856;7.278;2024-03-29T08:29:41;10.30;99.90
6964;DHT22;3522;50.856;7.278;2024-03-29T08:32:08;10.30;99.90
6964;DHT22;3522;50.856;7.278;2024-03-29T08:34:35;10.30;99.90
6964;DHT22;3522;50.856;7.278;2024-03-29T08:37:02;10.30;99.90
6964;DHT22;3522;50.856;7.278;2024-03-29T08:39:30;10.30;99.90
6964;DHT22;3522;50.856;7.278;2024-03-29T08:41:57;10.30;99.90
6964;DHT22;3522;50.856;7.278;2024-03-29T08:44:24;10.30;99.90
6964;DHT22;3522;50.856;7.278;2024-03-29T08:46:51;10.40;99.90
6964;DHT22;3522;50.856;7.278;2024-03-29T08:49:17;10.40;99.90
6964;DHT22;3522;50.856;7.278;2024-03-29T08:51:44;10.50;99.90
6964;DHT22;3522;50.856;7.278;2024-03-29T08:54:11;10.60;99.90
6964;DHT22;3522;50.856;7.278;2024-03-29T08:56:39;10.60;99.90
6964;DHT22;3522;50.856;7.278;2024-03-29T08:59:07;10.70;99.90
6964;DHT22;3522;50.856;7.278;2024-03-29T09:01:35;10.70;99.90
6964;DHT22;3522;50.856;7.278;2024-03-29T09:04:03;10.70;99.90
6964;DHT22;3522;50.856;7.278;2024-03-29T09:06:33;10.70;99.90
6964;DHT22;3522;50.856;7.278;2024-03-29T09:08:59;10.70;99.90
6964;DHT22;3522;50.856;7.278;2024-03-29T09:11:26;10.70;99.90
6964;DHT22;3522;50.856;7.278;2024-03-29T09:13:54;10.90;99.90
6964;DHT22;3522;50.856;7.278;2024-03-29T09:16:23;10.90;99.90
6964;DHT22;3522;50.856;7.278;2024-03-29T09:18:50;11.00;99.90
6964;DHT22;3522;50.856;7.278;2024-03-29T09:21:17;11.10;99.90
6964;DHT22;3522;50.856;7.278;2024-03-29T09:23:45;11.20;99.90
6964;DHT22;3522;50.856;7.278;2024-03-29T09:26:13;11.20;99.90
6964;DHT22;3522;50.856;7.278;2024-03-29T09:28:40;11.30;99.90
6964;DHT22;3522;50.856;7.278;2024-03-29T09:31:08;11.40;99.90
6964;DHT22;3522;50.856;7.278;2024-03-29T09:33:35;11.40;99.90
6964;DHT22;3522;50.856;7.278;2024-03-29T09:36:02;11.40;99.90
6964;DHT22;3522;50.856;7.278;2024-03-29T09:38:29;11.40;99.90
6964;DHT22;3522;50.856;7.278;2024-03-29T09:40:59;11.40;99.90
6964;DHT22;3522;50.856;7.278;2024-03-29T09:43:28;11.40;99.90
6964;DHT22;3522;50.856;7.278;2024-03-29T09:45:55;11.40;99.90
6964;DHT22;3522;50.856;7.278;2024-03-29T09:48:23;11.50;99.90
6964;DHT22;3522;50.856;7.278;2024-03-29T09:50:50;11.50;99.90
6964;DHT22;3522;50.856;7.278;2024-03-29T09:53:17;11.60;99.90
6964;DHT22;3522;50.856;7.278;2024-03-29T09:55:46;11.50;99.90
6964;DHT22;3522;50.856;7.278;2024-03-29T09:58:13;11.60;99.90
6964;DHT22;3522;50.856;7.278;2024-03-29T10:00:40;11.70;99.90
6964;DHT22;3522;50.856;7.278;2024-03-29T10:03:07;11.90;99.90
6964;DHT22;3522;50.856;7.278;2024-03-29T10:05:36;11.90;99.90
6964;DHT22;3522;50.856;7.278;2024-03-29T10:08:04;12.00;99.90
6964;DHT22;3522;50.856;7.278;2024-03-29T10:10:32;12.10;99.90
6964;DHT22;3522;50.856;7.278;2024-03-29T10:13:00;12.10;99.90
6964;DHT22;3522;50.856;7.278;2024-03-29T10:15:27;12.30;99.90
6964;DHT22;3522;50.856;7.278;2024-03-29T10:17:54;12.40;99.90
6964;DHT22;3522;50.856;7.278;2024-03-29T10:20:21;12.50;99.90
6964;DHT22;3522;50.856;7.278;2024-03-29T10:22:50;12.50;99.90
6964;DHT22;3522;50.856;7.278;2024-03-29T10:25:16;12.50;99.90
6964;DHT22;3522;50.856;7.278;2024-03-29T10:27:44;12.60;99.90
6964;DHT22;3522;50.856;7.278;2024-03-29T10:30:11;12.70;99.90
6964;DHT22;3522;50.856;7.278;2024-03-29T10:32:42;12.80;99.90
6964;DHT22;3522;50.856;7.278;2024-03-29T10:35:09;12.90;99.90
6964;DHT22;3522;50.856;7.278;2024-03-29T10:37:36;13.00;99.90
6964;DHT22;3522;50.856;7.278;2024-03-29T10:40:07;13.20;99.90
6964;DHT22;3522;50.856;7.278;2024-03-29T10:42:34;13.20;99.90
6964;DHT22;3522;50.856;7.278;2024-03-29T10:45:02;13.30;99.90
6964;DHT22;3522;50.856;7.278;2024-03-29T10:47:30;13.40;99.90
6964;DHT22;3522;50.856;7.278;2024-03-29T10:49:58;13.50;99.90
6964;DHT22;3522;50.856;7.278;2024-03-29T10:52:25;13.50;99.90
6964;DHT22;3522;50.856;7.278;2024-03-29T10:54:52;13.60;99.90
6964;DHT22;3522;50.856;7.278;2024-03-29T10:57:22;13.70;99.90
6964;DHT22;3522;50.856;7.278;2024-03-29T10:59:49;13.70;99.90
6964;DHT22;3522;50.856;7.278;2024-03-29T11:02:22;13.70;99.90
6964;DHT22;3522;50.856;7.278;2024-03-29T11:04:53;13.60;99.90
6964;DHT22;3522;50.856;7.278;2024-03-29T11:07:20;13.60;99.90
6964;DHT22;3522;50.856;7.278;2024-03-29T11:09:48;13.40;99.90
6964;DHT22;3522;50.856;7.278;2024-03-29T11:12:16;13.40;99.90
6964;DHT22;3522;50.856;7.278;2024-03-29T11:14:47;13.20;99.90
6964;DHT22;3522;50.856;7.278;2024-03-29T11:17:15;13.20;99.90
6964;DHT22;3522;50.856;7.278;2024-03-29T11:19:42;13.10;99.90
6964;DHT22;3522;50.856;7.278;2024-03-29T11:22:09;13.00;99.90
6964;DHT22;3522;50.856;7.278;2024-03-29T11:24:38;13.10;99.90
6964;DHT22;3522;50.856;7.278;2024-03-29T11:27:07;13.10;99.90
6964;DHT22;3522;50.856;7.278;2024-03-29T11:29:33;13.30;99.90
6964;DHT22;3522;50.856;7.278;2024-03-29T11:32:07;13.40;99.90
6964;DHT22;3522;50.856;7.278;2024-03-29T11:34:34;13.50;99.90
6964;DHT22;3522;50.856;7.278;2024-03-29T11:37:06;13.80;99.90
6964;DHT22;3522;50.856;7.278;2024-03-29T11:39:33;13.90;99.90
6964;DHT22;3522;50.856;7.278;2024-03-29T11:42:00;13.90;99.90
6964;DHT22;3522;50.856;7.278;2024-03-29T11:44:27;14.00;99.90
6964;DHT22;3522;50.856;7.278;2024-03-29T11:46:54;14.00;99.90
6964;DHT22;3522;50.856;7.278;2024-03-29T11:49:25;14.00;99.90
6964;DHT22;3522;50.856;7.278;2024-03-29T11:52:01;13.90;99.90
6964;DHT22;3522;50.856;7.278;2024-03-29T11:54:28;13.80;99.90
6964;DHT22;3522;50.856;7.278;2024-03-29T11:56:55;13.80;99.90
6964;DHT22;3522;50.856;7.278;2024-03-29T11:59:22;13.60;99.90
6964;DHT22;3522;50.856;7.278;2024-03-29T12:01:48;13.50;99.90
6964;DHT22;3522;50.856;7.278;2024-03-29T12:04:19;13.40;99.90
6964;DHT22;3522;50.856;7.278;2024-03-29T12:06:47;13.30;99.90
6964;DHT22;3522;50.856;7.278;2024-03-29T12:09:14;13.20;99.90
6964;DHT22;3522;50.856;7.278;2024-03-29T12:11:42;13.10;99.90
6964;DHT22;3522;50.856;7.278;2024-03-29T12:14:11;13.00;99.90
6964;DHT22;3522;50.856;7.278;2024-03-29T12:16:42;13.00;99.90
6964;DHT22;3522;50.856;7.278;2024-03-29T12:19:08;12.90;99.90
6964;DHT22;3522;50.856;7.278;2024-03-29T12:21:35;12.90;99.90
6964;DHT22;3522;50.856;7.278;2024-03-29T12:24:03;13.00;99.90
6964;DHT22;3522;50.856;7.278;2024-03-29T12:26:30;12.80;99.90
6964;DHT22;3522;50.856;7.278;2024-03-29T12:28:56;12.90;99.90
6964;DHT22;3522;50.856;7.278;2024-03-29T12:31:23;12.80;99.90
6964;DHT22;3522;50.856;7.278;2024-03-29T12:33:51;12.80;99.90
6964;DHT22;3522;50.856;7.278;2024-03-29T12:36:17;12.80;99.90
6964;DHT22;3522;50.856;7.278;2024-03-29T12:38:45;12.90;99.90
6964;DHT22;3522;50.856;7.278;2024-03-29T12:41:15;12.90;99.90
6964;DHT22;3522;50.856;7.278;2024-03-29T12:43:41;12.80;99.90
6964;DHT22;3522;50.856;7.278;2024-03-29T12:46:08;12.70;99.90
6964;DHT22;3522;50.856;7.278;2024-03-29T12:48:35;12.70;99.90
6964;DHT22;3522;50.856;7.278;2024-03-29T12:51:02;12.70;99.90
6964;DHT22;3522;50.856;7.278;2024-03-29T12:53:29;12.70;99.90
6964;DHT22;3522;50.856;7.278;2024-03-29T12:55:58;12.70;99.90
6964;DHT22;3522;50.856;7.278;2024-03-29T12:58:26;12.60;99.90
6964;DHT22;3522;50.856;7.278;2024-03-29T13:00:53;12.50;99.90
6964;DHT22;3522;50.856;7.278;2024-03-29T13:03:20;12.50;99.90
6964;DHT22;3522;50.856;7.278;2024-03-29T13:05:47;12.50;99.90
6964;DHT22;3522;50.856;7.278;2024-03-29T13:08:13;12.40;99.90
6964;DHT22;3522;50.856;7.278;2024-03-29T13:10:41;12.50;99.90
6964;DHT22;3522;50.856;7.278;2024-03-29T13:13:08;12.50;99.90
6964;DHT22;3522;50.856;7.278;2024-03-29T13:15:37;12.40;99.90
6964;DHT22;3522;50.856;7.278;2024-03-29T13:18:04;12.50;99.90
6964;DHT22;3522;50.856;7.278;2024-03-29T13:20:31;12.50;99.90
6964;DHT22;3522;50.856;7.278;2024-03-29T13:22:59;12.50;99.90
6964;DHT22;3522;50.856;7.278;2024-03-29T13:25:25;12.50;99.90
6964;DHT22;3522;50.856;7.278;2024-03-29T13:27:52;12.50;99.90
6964;DHT22;3522;50.856;7.278;2024-03-29T13:30:20;12.50;99.90
6964;DHT22;3522;50.856;7.278;2024-03-29T13:32:48;12.50;99.90
6964;DHT22;3522;50.856;7.278;2024-03-29T13:35:15;12.50;99.90
6964;DHT22;3522;50.856;7.278;2024-03-29T13:37:44;12.50;99.90
6964;DHT22;3522;50.856;7.278;2024-03-29T13:40:11;12.40;99.90
6964;DHT22;3522;50.856;7.278;2024-03-29T13:42:38;12.30;99.90
6964;DHT22;3522;50.856;7.278;2024-03-29T13:45:06;12.40;99.90
6964;DHT22;3522;50.856;7.278;2024-03-29T13:47:33;12.20;99.90
6964;DHT22;3522;50.856;7.278;2024-03-29T13:50:02;12.20;99.90
6964;DHT22;3522;50.856;7.278;2024-03-29T13:52:29;12.20;99.90
6964;DHT22;3522;50.856;7.278;2024-03-29T13:54:56;12.20;99.90
6964;DHT22;3522;50.856;7.278;2024-03-29T13:57:22;12.20;99.90
6964;DHT22;3522;50.856;7.278;2024-03-29T13:59:49;12.20;99.90
6964;DHT22;3522;50.856;7.278;2024-03-29T14:02:16;12.20;99.90
6964;DHT22;3522;50.856;7.278;2024-03-29T14:04:43;12.20;99.90
6964;DHT22;3522;50.856;7.278;2024-03-29T14:07:13;12.20;99.90
6964;DHT22;3522;50.856;7.278;2024-03-29T14:09:40;12.30;99.90
6964;DHT22;3522;50.856;7.278;2024-03-29T14:12:07;12.30;99.90
6964;DHT22;3522;50.856;7.278;2024-03-29T14:14:33;12.50;99.90
6964;DHT22;3522;50.856;7.278;2024-03-29T14:17:00;12.80;99.90
6964;DHT22;3522;50.856;7.278;2024-03-29T14:19:29;13.20;99.90
6964;DHT22;3522;50.856;7.278;2024-03-29T14:21:56;13.40;99.90
6964;DHT22;3522;50.856;7.278;2024-03-29T14:24:24;13.60;99.90
6964;DHT22;3522;50.856;7.278;2024-03-29T14:26:52;13.70;99.90
6964;DHT22;3522;50.856;7.278;2024-03-29T14:29:19;13.90;99.90
6964;DHT22;3522;50.856;7.278;2024-03-29T14:31:46;13.70;99.90
6964;DHT22;3522;50.856;7.278;2024-03-29T14:34:13;13.90;99.90
6964;DHT22;3522;50.856;7.278;2024-03-29T14:36:40;14.00;99.90
6964;DHT22;3522;50.856;7.278;2024-03-29T14:39:06;13.90;99.90
6964;DHT22;3522;50.856;7.278;2024-03-29T14:41:34;13.90;99.90
6964;DHT22;3522;50.856;7.278;2024-03-29T14:44:04;13.90;99.90
6964;DHT22;3522;50.856;7.278;2024-03-29T14:46:32;13.80;99.90
6964;DHT22;3522;50.856;7.278;2024-03-29T14:48:59;13.60;99.90
6964;DHT22;3522;50.856;7.278;2024-03-29T14:51:26;13.60;99.90
6964;DHT22;3522;50.856;7.278;2024-03-29T14:53:53;13.60;99.90
6964;DHT22;3522;50.856;7.278;2024-03-29T14:56:20;13.60;99.90
6964;DHT22;3522;50.856;7.278;2024-03-29T14:58:48;13.60;99.90
6964;DHT22;3522;50.856;7.278;2024-03-29T15:01:15;13.50;99.90
6964;DHT22;3522;50.856;7.278;2024-03-29T15:03:41;13.40;99.90
6964;DHT22;3522;50.856;7.278;2024-03-29T15:06:08;13.40;99.90
6964;DHT22;3522;50.856;7.278;2024-03-29T15:08:35;13.40;99.90
6964;DHT22;3522;50.856;7.278;2024-03-29T15:11:01;13.40;99.90
6964;DHT22;3522;50.856;7.278;2024-03-29T15:13:28;13.50;99.90
6964;DHT22;3522;50.856;7.278;2024-03-29T15:15:57;13.50;99.90
6964;DHT22;3522;50.856;7.278;2024-03-29T15:18:23;13.50;99.90
6964;DHT22;3522;50.856;7.278;2024-03-29T15:20:53;13.50;99.90
6964;DHT22;3522;50.856;7.278;2024-03-29T15:23:20;13.60;99.90
6964;DHT22;3522;50.856;7.278;2024-03-29T15:25:50;13.50;99.90
6964;DHT22;3522;50.856;7.278;2024-03-29T15:28:17;13.40;99.90
6964;DHT22;3522;50.856;7.278;2024-03-29T15:31:08;13.30;99.90
6964;DHT22;3522;50.856;7.278;2024-03-29T15:33:34;13.30;99.90
6964;DHT22;3522;50.856;7.278;2024-03-29T15:36:00;13.30;99.90
6964;DHT22;3522;50.856;7.278;2024-03-29T15:38:27;13.20;99.90
6964;DHT22;3522;50.856;7.278;2024-03-29T15:40:55;13.10;99.90
6964;DHT22;3522;50.856;7.278;2024-03-29T15:43:22;13.10;99.90
6964;DHT22;3522;50.856;7.278;2024-03-29T15:45:49;13.00;99.90
6964;DHT22;3522;50.856;7.278;2024-03-29T15:48:17;13.00;99.90
6964;DHT22;3522;50.856;7.278;2024-03-29T15:50:44;12.90;99.90
6964;DHT22;3522;50.856;7.278;2024-03-29T15:53:12;12.90;99.90
6964;DHT22;3522;50.856;7.278;2024-03-29T15:55:41;12.90;99.90
6964;DHT22;3522;50.856;7.278;2024-03-29T15:58:08;12.80;99.90
6964;DHT22;3522;50.856;7.278;2024-03-29T16:00:35;12.70;99.90
6964;DHT22;3522;50.856;7.278;2024-03-29T16:03:08;12.70;99.90
6964;DHT22;3522;50.856;7.278;2024-03-29T16:05:36;12.60;99.90
6964;DHT22;3522;50.856;7.278;2024-03-29T16:08:03;12.60;99.90
6964;DHT22;3522;50.856;7.278;2024-03-29T16:10:30;12.60;99.90
6964;DHT22;3522;50.856;7.278;2024-03-29T16:12:56;12.60;99.90